Ben — 9VJM4 — position and weather

sailwx.info

Track history (hours):
 
Tides and Currents Weather Stations Pressure Air Temp Water Temp Dewpoint Dewpoint Depression Visibility Wind Speed Wind Dir Waves Ship Positions

Ben

Last reported at 2014-Oct-31 08:30 UTC. Time now 2014-Nov-01 04:01 UTC.
Position N 19°48' E 109°09'.

Length 127 m; draft 7.5 m.

Type: Ship. MMSI: 565611000.

Date/timePositionNaut miles runAvg speedWind from/ knotsBaromVisibWave heightAir tempDewpointWater temp
2014-Oct-31 08:30N 19°48' E 109°09'3 3.2
2014-Oct-31 07:32N 19°51' E 109°08'0 0.0
2014-Oct-31 06:32N 19°51' E 109°08'0 0.1
2014-Oct-31 03:11N 19°51' E 109°08'0 0.0
2014-Oct-31 02:20N 19°51' E 109°08'0 0.0
2014-Oct-31 01:26N 19°51' E 109°08'0 0.0
2014-Oct-31 00:32N 19°51' E 109°08'0 0.0
2014-Oct-30 23:26N 19°51' E 109°08'0 0.0
2014-Oct-30 22:29N 19°51' E 109°08'0 0.0
2014-Oct-30 20:32N 19°51' E 109°08'0 0.1
2014-Oct-30 19:26N 19°51' E 109°08'0 0.0
2014-Oct-30 18:14N 19°51' E 109°08'0 0.1
2014-Oct-30 17:29N 19°51' E 109°08'0 0.0
2014-Oct-30 16:29N 19°51' E 109°08'0 0.0
2014-Oct-30 15:29N 19°51' E 109°08'0 0.0
2014-Oct-30 14:29N 19°51' E 109°08'0 0.0
2014-Oct-30 13:26N 19°51' E 109°08'0 0.0
2014-Oct-30 12:29N 19°51' E 109°08'0 0.0
2014-Oct-30 10:32N 19°51' E 109°08'0 0.1
2014-Oct-30 09:32N 19°51' E 109°08'0 0.0
2014-Oct-30 08:23N 19°51' E 109°08'0 0.0
2014-Oct-30 07:32N 19°51' E 109°08'0 0.0
2014-Oct-30 06:26N 19°51' E 109°08'0 0.0
2014-Oct-30 05:20N 19°51' E 109°08'0 0.1
2014-Oct-30 04:33N 19°51' E 109°08'  
2014-Oct-27 10:07N 19°48' E 109°10'3 5.2
2014-Oct-27 09:33N 19°47' E 109°07'4 3.4
2014-Oct-27 08:29N 19°45' E 109°04'0 0.0
2014-Oct-27 07:29N 19°45' E 109°04'0 0.0
2014-Oct-27 06:32N 19°45' E 109°04'0 0.0
2014-Oct-27 05:23N 19°45' E 109°04'0 0.0
2014-Oct-27 04:29N 19°45' E 109°04'0 0.0
2014-Oct-27 03:32N 19°45' E 109°04'0 0.0
2014-Oct-27 02:32N 19°45' E 109°04'0 0.0
2014-Oct-27 01:32N 19°45' E 109°04'0 0.0
2014-Oct-27 00:29N 19°45' E 109°04'0 0.0
2014-Oct-26 23:32N 19°45' E 109°04'0 0.0
2014-Oct-26 22:32N 19°45' E 109°04'0 0.1
2014-Oct-26 21:29N 19°45' E 109°04'0 0.0
2014-Oct-26 20:32N 19°45' E 109°04'0 0.0
2014-Oct-26 19:17N 19°45' E 109°04'0 0.1
2014-Oct-26 18:26N 19°45' E 109°04'0 0.1
2014-Oct-26 17:17N 19°45' E 109°04'0 0.0
2014-Oct-26 16:32N 19°45' E 109°04'0 0.0
2014-Oct-26 15:26N 19°45' E 109°04'0 0.0
2014-Oct-26 14:32N 19°45' E 109°04'0 0.0
2014-Oct-26 13:32N 19°45' E 109°04'0 0.0
2014-Oct-26 12:32N 19°45' E 109°04'0 0.0
2014-Oct-26 11:32N 19°45' E 109°04'0 0.0
2014-Oct-26 10:32N 19°45' E 109°04'0 0.0
2014-Oct-26 09:29N 19°45' E 109°04'0 0.0
2014-Oct-26 08:23N 19°45' E 109°04'0 0.0
2014-Oct-26 07:32N 19°45' E 109°04'0 0.0
2014-Oct-26 06:29N 19°45' E 109°04'0 0.0
2014-Oct-26 05:29N 19°45' E 109°04'0 0.0
2014-Oct-26 04:32N 19°45' E 109°04'0 0.0
2014-Oct-26 03:32N 19°45' E 109°04'0 0.0
2014-Oct-26 02:29N 19°45' E 109°04'0 0.0
2014-Oct-26 01:32N 19°45' E 109°04'1 0.7
2014-Oct-26 00:33N 19°45' E 109°03'  
Track history (hours):
 
Tides and Currents Weather Stations Pressure Air Temp Water Temp Dewpoint Dewpoint Depression Visibility Wind Speed Wind Dir Waves Ship Positions

Ben

Last reported at 2014-Oct-31 08:30 UTC. Time now 2014-Nov-01 04:01 UTC.
Position N 19°48' E 109°09'.

Length 127 m; draft 7.5 m.

Type: Ship. MMSI: 565611000.

Date/timePositionNaut miles runAvg speedWind from/ knotsBaromVisibWave heightAir tempDewpointWater temp
2014-Oct-31 08:30N 19°48' E 109°09'3 3.2
2014-Oct-31 07:32N 19°51' E 109°08'0 0.0
2014-Oct-31 06:32N 19°51' E 109°08'0 0.1
2014-Oct-31 03:11N 19°51' E 109°08'0 0.0
2014-Oct-31 02:20N 19°51' E 109°08'0 0.0
2014-Oct-31 01:26N 19°51' E 109°08'0 0.0
2014-Oct-31 00:32N 19°51' E 109°08'0 0.0
2014-Oct-30 23:26N 19°51' E 109°08'0 0.0
2014-Oct-30 22:29N 19°51' E 109°08'0 0.0
2014-Oct-30 20:32N 19°51' E 109°08'0 0.1
2014-Oct-30 19:26N 19°51' E 109°08'0 0.0
2014-Oct-30 18:14N 19°51' E 109°08'0 0.1
2014-Oct-30 17:29N 19°51' E 109°08'0 0.0
2014-Oct-30 16:29N 19°51' E 109°08'0 0.0
2014-Oct-30 15:29N 19°51' E 109°08'0 0.0
2014-Oct-30 14:29N 19°51' E 109°08'0 0.0
2014-Oct-30 13:26N 19°51' E 109°08'0 0.0
2014-Oct-30 12:29N 19°51' E 109°08'0 0.0
2014-Oct-30 10:32N 19°51' E 109°08'0 0.1
2014-Oct-30 09:32N 19°51' E 109°08'0 0.0
2014-Oct-30 08:23N 19°51' E 109°08'0 0.0
2014-Oct-30 07:32N 19°51' E 109°08'0 0.0
2014-Oct-30 06:26N 19°51' E 109°08'0 0.0
2014-Oct-30 05:20N 19°51' E 109°08'0 0.1
2014-Oct-30 04:33N 19°51' E 109°08'  
2014-Oct-27 10:07N 19°48' E 109°10'3 5.2
2014-Oct-27 09:33N 19°47' E 109°07'4 3.4
2014-Oct-27 08:29N 19°45' E 109°04'0 0.0
2014-Oct-27 07:29N 19°45' E 109°04'0 0.0
2014-Oct-27 06:32N 19°45' E 109°04'0 0.0
2014-Oct-27 05:23N 19°45' E 109°04'0 0.0
2014-Oct-27 04:29N 19°45' E 109°04'0 0.0
2014-Oct-27 03:32N 19°45' E 109°04'0 0.0
2014-Oct-27 02:32N 19°45' E 109°04'0 0.0
2014-Oct-27 01:32N 19°45' E 109°04'0 0.0
2014-Oct-27 00:29N 19°45' E 109°04'0 0.0
2014-Oct-26 23:32N 19°45' E 109°04'0 0.0
2014-Oct-26 22:32N 19°45' E 109°04'0 0.1
2014-Oct-26 21:29N 19°45' E 109°04'0 0.0
2014-Oct-26 20:32N 19°45' E 109°04'0 0.0
2014-Oct-26 19:17N 19°45' E 109°04'0 0.1
2014-Oct-26 18:26N 19°45' E 109°04'0 0.1
2014-Oct-26 17:17N 19°45' E 109°04'0 0.0
2014-Oct-26 16:32N 19°45' E 109°04'0 0.0
2014-Oct-26 15:26N 19°45' E 109°04'0 0.0
2014-Oct-26 14:32N 19°45' E 109°04'0 0.0
2014-Oct-26 13:32N 19°45' E 109°04'0 0.0
2014-Oct-26 12:32N 19°45' E 109°04'0 0.0
2014-Oct-26 11:32N 19°45' E 109°04'0 0.0
2014-Oct-26 10:32N 19°45' E 109°04'0 0.0
2014-Oct-26 09:29N 19°45' E 109°04'0 0.0
2014-Oct-26 08:23N 19°45' E 109°04'0 0.0
2014-Oct-26 07:32N 19°45' E 109°04'0 0.0
2014-Oct-26 06:29N 19°45' E 109°04'0 0.0
2014-Oct-26 05:29N 19°45' E 109°04'0 0.0
2014-Oct-26 04:32N 19°45' E 109°04'0 0.0
2014-Oct-26 03:32N 19°45' E 109°04'0 0.0
2014-Oct-26 02:29N 19°45' E 109°04'0 0.0
2014-Oct-26 01:32N 19°45' E 109°04'1 0.7
2014-Oct-26 00:33N 19°45' E 109°03'  

Dump ship's entire track history